Time;durP1;ratioP1;P1;durP2;ratioP2;P2;SDS_P1;SDS_P2;PMS_P1;PMS_P2;Temp;Humidity;BMP_temperature;BMP_pressure;BME280_temperature;BME280_humidity;BME280_pressure;Samples;Min_cycle;Max_cycle;Signal;HPM_P1;HPM_P2
2022/04/28 00:00:21;;;;;;;12.47;10.40;;;;;6.30;94774.00;;;;7392076;19;20152;-75
2022/04/28 00:02:48;;;;;;;10.90;9.37;;;;;6.10;94780.00;;;;7390803;19;20646;-75
2022/04/28 00:05:24;;;;;;;12.27;10.37;;;;;6.20;94778.00;;;;7394268;19;20236;-77
2022/04/28 00:07:52;;;;;;;13.87;10.00;;;;;6.30;94770.00;;;;7394124;19;20132;-76
2022/04/28 00:10:20;;;;;;;11.43;10.20;;;;;6.30;94767.00;;;;7390532;19;20160;-76
2022/04/28 00:12:55;;;;;;;11.03;9.90;;;;;6.30;94770.00;;;;7393226;19;20511;-76
2022/04/28 00:15:22;;;;;;;12.13;10.10;;;;;6.30;94770.00;;;;7390682;19;20459;-76
2022/04/28 00:17:50;;;;;;;12.67;10.03;;;;;6.30;94776.00;;;;7393572;19;20129;-76
2022/04/28 00:20:24;;;;;;;13.57;10.20;;;;;6.30;94779.00;;;;7391638;19;20121;-77
2022/04/28 00:22:52;;;;;;;13.20;9.70;;;;;6.30;94786.00;;;;7392357;19;20148;-77
2022/04/28 00:25:21;;;;;;;10.37;9.27;;;;;6.20;94767.00;;;;7391097;19;20165;-77
2022/04/28 00:27:55;;;;;;;12.80;10.83;;;;;6.20;94781.00;;;;7392284;19;20623;-76
2022/04/28 00:30:23;;;;;;;12.87;10.20;;;;;6.20;94774.00;;;;7390828;19;20587;-77
2022/04/28 00:32:51;;;;;;;11.93;9.87;;;;;6.20;94779.00;;;;7391721;19;20159;-77
2022/04/28 00:35:24;;;;;;;12.90;9.90;;;;;6.20;94771.00;;;;7391345;19;20596;-77
2022/04/28 00:37:52;;;;;;;11.83;10.37;;;;;6.30;94769.00;;;;7392550;19;20151;-75
2022/04/28 00:40:20;;;;;;;12.23;9.57;;;;;6.50;94775.00;;;;7389877;19;20178;-76
2022/04/28 00:43:18;;;;;;;12.13;10.50;;;;;6.40;94774.00;;;;7393050;19;20208;-77
2022/04/28 00:45:41;;;;;;;11.77;9.67;;;;;6.10;94781.00;;;;7392027;19;20661;-77
2022/04/28 00:51:04;;;;;;;11.40;9.10;;;;;5.80;94774.00;;;;7394246;19;20142;-76
2022/04/28 00:53:48;;;;;;;13.17;10.53;;;;;5.80;94767.00;;;;7389741;19;20139;-75
2022/04/28 00:56:16;;;;;;;13.90;10.47;;;;;5.70;94771.00;;;;7397261;19;20133;-76
2022/04/28 00:58:58;;;;;;;13.67;9.93;;;;;5.70;94771.00;;;;7399149;19;20172;-76
2022/04/28 01:01:32;;;;;;;12.83;10.53;;;;;5.80;94774.00;;;;7400521;19;20638;-75
2022/04/28 01:04:06;;;;;;;14.23;10.40;;;;;5.80;94778.00;;;;7397136;19;20129;-76
2022/04/28 01:06:34;;;;;;;12.07;9.57;;;;;5.70;94773.00;;;;7398837;19;20631;-76
2022/04/28 01:09:02;;;;;;;11.80;10.20;;;;;5.70;94773.00;;;;7397262;19;20144;-76
2022/04/28 01:11:38;;;;;;;15.50;9.67;;;;;5.50;94776.00;;;;7399944;19;20174;-77
2022/04/28 01:14:06;;;;;;;11.40;10.20;;;;;5.40;94775.00;;;;7400091;19;20172;-76
2022/04/28 01:16:33;;;;;;;12.83;10.17;;;;;5.40;94774.00;;;;7399008;19;20157;-75
2022/04/28 01:19:07;;;;;;;12.20;10.20;;;;;5.30;94771.00;;;;7399662;19;20588;-76
2022/04/28 01:21:35;;;;;;;15.50;10.73;;;;;5.30;94777.00;;;;7396482;19;20141;-75
2022/04/28 01:24:03;;;;;;;12.30;10.47;;;;;5.40;94784.00;;;;7399163;19;20152;-76
2022/04/28 01:26:39;;;;;;;14.13;10.27;;;;;5.50;94781.00;;;;7394984;19;20147;-76
2022/04/28 01:29:06;;;;;;;12.40;10.50;;;;;5.50;94775.00;;;;7399650;19;20467;-76
2022/04/28 01:31:34;;;;;;;11.43;10.23;;;;;5.40;94777.00;;;;7395680;19;20487;-75
2022/04/28 01:34:08;;;;;;;12.27;10.27;;;;;5.40;94774.00;;;;7398733;19;20220;-75
2022/04/28 01:36:36;;;;;;;12.60;9.97;;;;;5.40;94774.00;;;;7396463;19;20133;-76
2022/04/28 01:39:09;;;;;;;13.80;9.77;;;;;5.30;94771.00;;;;7399051;19;20494;-75
2022/04/28 01:41:43;;;;;;;11.67;10.23;;;;;5.50;94777.00;;;;7399818;19;20148;-76
2022/04/28 01:44:11;;;;;;;13.13;10.67;;;;;5.50;94775.00;;;;7398792;19;20155;-76
2022/04/28 01:46:38;;;;;;;11.03;9.83;;;;;5.40;94770.00;;;;7397025;19;20477;-75
2022/04/28 01:49:12;;;;;;;10.50;8.90;;;;;5.30;94764.00;;;;7397323;19;20155;-75
2022/04/28 01:57:18;;;;;;;11.40;9.93;;;;;5.10;94775.00;;;;7397334;19;20163;-78
2022/04/28 02:00:06;;;;;;;11.27;9.40;;;;;5.10;94765.00;;;;7394622;19;20168;-77
2022/04/28 02:02:34;;;;;;;10.63;9.47;;;;;4.80;94764.00;;;;7398658;19;20148;-75
2022/04/28 02:05:09;;;;;;;13.00;9.27;;;;;4.70;94757.00;;;;7395005;19;20529;-74
2022/04/28 02:07:37;;;;;;;13.03;10.10;;;;;4.70;94769.00;;;;7395090;19;20172;-75
2022/04/28 02:10:06;;;;;;;11.77;10.00;;;;;4.60;94769.00;;;;7394284;19;20200;-76
2022/04/28 02:12:40;;;;;;;13.10;9.80;;;;;4.60;94769.00;;;;7397291;19;20132;-78
2022/04/28 02:15:08;;;;;;;11.87;9.90;;;;;4.40;94769.00;;;;7394319;19;20241;-75
2022/04/28 02:17:38;;;;;;;12.17;10.37;;;;;4.30;94763.00;;;;7397558;19;20535;-76
2022/04/28 02:20:12;;;;;;;11.40;9.90;;;;;4.20;94779.00;;;;7396563;19;20144;-75
2022/04/28 02:22:40;;;;;;;13.20;10.20;;;;;4.20;94766.00;;;;7386968;19;20148;-77
2022/04/28 02:25:08;;;;;;;12.97;10.07;;;;;4.10;94765.00;;;;7397768;19;20184;-75
2022/04/28 02:27:42;;;;;;;13.13;10.93;;;;;4.20;94773.00;;;;7396668;19;20626;-76
2022/04/28 02:30:17;;;;;;;13.77;11.87;;;;;4.20;94772.00;;;;7394404;19;20633;-76
2022/04/28 02:33:09;;;;;;;15.27;11.70;;;;;4.20;94765.00;;;;7398017;19;20182;-75
2022/04/28 02:35:40;;;;;;;14.30;11.70;;;;;4.10;94771.00;;;;7393050;19;20144;-75
2022/04/28 02:38:14;;;;;;;15.57;11.77;;;;;4.00;94771.00;;;;7398313;19;20132;-75
2022/04/28 02:40:42;;;;;;;15.20;11.53;;;;;4.10;94782.00;;;;7396681;19;20149;-76
2022/04/28 02:43:09;;;;;;;17.60;12.60;;;;;4.10;94783.00;;;;7394143;19;20137;-78
2022/04/28 02:45:43;;;;;;;18.23;13.20;;;;;4.10;94776.00;;;;7397071;19;20152;-75
2022/04/28 02:48:11;;;;;;;15.00;12.57;;;;;4.10;94777.00;;;;7395083;19;20642;-77
2022/04/28 02:50:38;;;;;;;16.73;12.97;;;;;4.20;94777.00;;;;7397723;19;20173;-77
2022/04/28 02:53:13;;;;;;;18.40;12.70;;;;;4.20;94778.00;;;;7394318;19;20125;-75
2022/04/28 02:55:40;;;;;;;19.23;13.47;;;;;4.20;94777.00;;;;7396054;19;20175;-76
2022/04/28 02:58:08;;;;;;;19.43;14.27;;;;;4.20;94779.00;;;;7393900;19;20141;-76
2022/04/28 03:00:49;;;;;;;20.60;14.87;;;;;4.00;94777.00;;;;7396151;19;20178;-76
2022/04/28 03:03:16;;;;;;;18.97;14.73;;;;;4.00;94778.00;;;;7394039;19;20187;-75
2022/04/28 03:11:29;;;;;;;20.17;15.70;;;;;4.10;94787.00;;;;7392671;19;20144;-75
2022/04/28 03:13:58;;;;;;;21.60;16.07;;;;;4.00;94785.00;;;;7395823;19;20145;-76
2022/04/28 03:16:25;;;;;;;25.47;18.10;;;;;4.00;94787.00;;;;7392076;19;20148;-76
2022/04/28 03:19:06;;;;;;;22.00;17.30;;;;;4.10;94786.00;;;;7390654;19;20579;-75
2022/04/28 03:21:34;;;;;;;25.30;18.57;;;;;4.10;94783.00;;;;7394569;19;20135;-76
2022/04/28 03:24:08;;;;;;;25.03;18.57;;;;;4.10;94788.00;;;;7394382;19;20536;-75
2022/04/28 03:26:38;;;;;;;31.77;19.73;;;;;4.30;94786.00;;;;7394444;19;20483;-75
2022/04/28 03:29:06;;;;;;;25.87;18.73;;;;;4.30;94788.00;;;;7393328;19;20152;-76
2022/04/28 03:31:41;;;;;;;24.23;17.70;;;;;4.30;94783.00;;;;7392338;19;20595;-77
2022/04/28 03:34:10;;;;;;;26.20;19.23;;;;;4.40;94792.00;;;;7393882;19;20144;-76
2022/04/28 03:36:53;;;;;;;26.20;18.20;;;;;4.50;94785.00;;;;7391553;19;20599;-75
2022/04/28 03:39:26;;;;;;;27.13;19.90;;;;;4.40;94785.00;;;;7392691;19;20152;-76
2022/04/28 03:41:54;;;;;;;27.93;19.20;;;;;4.40;94788.00;;;;7391770;19;20153;-76
2022/04/28 03:44:21;;;;;;;27.37;19.13;;;;;4.30;94786.00;;;;7393291;19;20149;-76
2022/04/28 03:46:56;;;;;;;29.47;19.80;;;;;4.30;94787.00;;;;7390881;19;20136;-76
2022/04/28 03:49:23;;;;;;;27.83;19.17;;;;;4.20;94789.00;;;;7392616;19;20162;-75
2022/04/28 03:51:51;;;;;;;31.33;20.97;;;;;4.30;94790.00;;;;7392315;19;20192;-75
2022/04/28 03:54:25;;;;;;;28.73;20.13;;;;;4.50;94792.00;;;;7392703;19;20631;-75
2022/04/28 03:56:53;;;;;;;27.50;19.83;;;;;4.50;94794.00;;;;7390966;19;20132;-74
2022/04/28 03:59:21;;;;;;;28.30;20.50;;;;;4.50;94793.00;;;;7390719;19;20141;-76
2022/04/28 04:02:01;;;;;;;28.40;19.90;;;;;4.40;94800.00;;;;7391313;19;20145;-75
2022/04/28 04:04:29;;;;;;;29.43;20.80;;;;;4.40;94799.00;;;;7392802;19;20148;-76
2022/04/28 04:07:05;;;;;;;31.37;20.07;;;;;4.30;94793.00;;;;7391419;19;20152;-76
2022/04/28 04:09:32;;;;;;;27.50;20.17;;;;;4.40;94797.00;;;;7391236;19;20549;-75
2022/04/28 04:12:00;;;;;;;30.00;20.37;;;;;4.40;94796.00;;;;7395790;19;20136;-74
2022/04/28 04:14:34;;;;;;;29.60;19.97;;;;;4.40;94799.00;;;;7391616;19;20160;-77
2022/04/28 04:17:03;;;;;;;32.40;20.87;;;;;4.50;94799.00;;;;7393553;19;20152;-76
2022/04/28 04:19:31;;;;;;;30.03;20.17;;;;;4.50;94799.00;;;;7393914;19;20636;-75
2022/04/28 04:22:04;;;;;;;30.63;20.23;;;;;4.50;94806.00;;;;7394543;19;20155;-75
2022/04/28 04:24:32;;;;;;;29.83;20.90;;;;;4.50;94798.00;;;;7391849;19;20495;-75
2022/04/28 04:27:00;;;;;;;30.00;20.90;;;;;4.50;94803.00;;;;7394985;19;20148;-76
2022/04/28 04:29:36;;;;;;;26.10;18.77;;;;;4.50;94809.00;;;;7393899;19;20538;-76
2022/04/28 04:32:20;;;;;;;28.67;21.00;;;;;4.80;94806.00;;;;7399873;19;20129;-76
2022/04/28 04:34:54;;;;;;;27.90;19.67;;;;;4.80;94811.00;;;;7398595;19;20145;-75
2022/04/28 04:37:22;;;;;;;29.37;19.37;;;;;4.90;94803.00;;;;7399998;19;20155;-76
2022/04/28 04:39:50;;;;;;;25.57;19.23;;;;;5.10;94810.00;;;;7401510;19;20164;-75
2022/04/28 04:42:24;;;;;;;27.07;19.80;;;;;5.10;94816.00;;;;7398301;19;20136;-75
2022/04/28 04:44:52;;;;;;;26.60;19.27;;;;;5.20;94824.00;;;;7397468;19;20184;-76
2022/04/28 04:47:19;;;;;;;27.30;18.97;;;;;5.30;94816.00;;;;7397769;19;20616;-76
2022/04/28 04:49:53;;;;;;;25.63;18.87;;;;;5.30;94824.00;;;;7398674;19;20164;-76
2022/04/28 04:52:21;;;;;;;23.17;17.53;;;;;5.40;94828.00;;;;7397481;19;20137;-75
2022/04/28 04:54:48;;;;;;;26.20;17.43;;;;;5.70;94824.00;;;;7397390;19;20152;-76
2022/04/28 04:57:22;;;;;;;24.80;16.50;;;;;5.70;94829.00;;;;7392434;19;20628;-75
2022/04/28 05:00:04;;;;;;;23.53;17.33;;;;;5.80;94823.00;;;;7398264;19;20200;-75
2022/04/28 05:02:39;;;;;;;25.43;17.90;;;;;6.00;94831.00;;;;7402442;19;20153;-76
2022/04/28 05:05:08;;;;;;;22.17;17.00;;;;;6.20;94834.00;;;;7401388;19;20541;-75
2022/04/28 05:07:37;;;;;;;21.43;16.53;;;;;6.30;94842.00;;;;7403267;19;20145;-76
2022/04/28 05:10:11;;;;;;;21.27;16.17;;;;;6.30;94846.00;;;;7400241;19;20599;-75
2022/04/28 05:12:39;;;;;;;21.10;15.77;;;;;6.50;94845.00;;;;7402138;19;20141;-75
2022/04/28 05:15:08;;;;;;;17.43;14.57;;;;;6.50;94848.00;;;;7402239;19;20149;-76
2022/04/28 05:17:43;;;;;;;18.63;15.77;;;;;6.70;94851.00;;;;7402862;19;20203;-76
2022/04/28 05:20:13;;;;;;;19.00;15.10;;;;;6.80;94851.00;;;;7403296;19;20129;-75
2022/04/28 05:22:41;;;;;;;18.20;14.90;;;;;6.90;94861.00;;;;7402524;19;20619;-75
2022/04/28 05:25:16;;;;;;;16.87;13.70;;;;;7.00;94867.00;;;;7402000;19;20152;-77
2022/04/28 05:27:44;;;;;;;19.60;14.17;;;;;7.10;94855.00;;;;7400669;19;20166;-74
2022/04/28 05:30:12;;;;;;;18.37;14.57;;;;;7.30;94864.00;;;;7401692;19;20631;-76
2022/04/28 05:32:47;;;;;;;17.13;14.03;;;;;7.40;94869.00;;;;7406438;19;20152;-75
2022/04/28 05:35:15;;;;;;;15.43;13.40;;;;;7.60;94863.00;;;;7404736;19;20148;-75
2022/04/28 05:37:43;;;;;;;17.00;13.80;;;;;7.70;94866.00;;;;7402861;19;20627;-75
2022/04/28 05:40:18;;;;;;;15.80;12.97;;;;;7.80;94868.00;;;;7402328;19;20156;-76
2022/04/28 05:45:43;;;;;;;15.27;12.20;;;;;8.10;94874.00;;;;7403601;19;20132;-76
2022/04/28 05:48:18;;;;;;;12.77;11.30;;;;;8.40;94869.00;;;;7400596;19;20149;-75
2022/04/28 05:50:53;;;;;;;14.07;11.30;;;;;8.70;94868.00;;;;7399920;19;20157;-75
2022/04/28 05:53:21;;;;;;;13.70;11.10;;;;;8.70;94878.00;;;;7401919;19;20160;-77
2022/04/28 05:55:49;;;;;;;12.30;10.10;;;;;9.00;94882.00;;;;7400831;19;20211;-75
2022/04/28 05:58:24;;;;;;;11.97;10.13;;;;;9.50;94873.00;;;;7401363;19;20605;-76
2022/04/28 06:01:01;;;;;;;11.90;9.87;;;;;9.50;94880.00;;;;7398662;19;20562;-75
2022/04/28 06:03:36;;;;;;;10.90;9.37;;;;;9.80;94891.00;;;;7400309;19;20167;-75
2022/04/28 06:06:04;;;;;;;10.93;9.30;;;;;10.30;94881.00;;;;7400976;19;20475;-76
2022/04/28 06:08:39;;;;;;;10.63;9.45;;;;;10.30;94889.00;;;;7393219;19;20178;-77
2022/04/28 06:11:17;;;;;;;9.73;8.73;;;;;10.40;94890.00;;;;7396278;19;20528;-76
2022/04/28 06:13:45;;;;;;;14.00;9.30;;;;;10.60;94887.00;;;;7398377;19;20498;-76
2022/04/28 06:16:16;;;;;;;10.20;8.90;;;;;10.80;94888.00;;;;7399486;19;20622;-75
2022/04/28 06:18:51;;;;;;;10.30;8.65;;;;;11.10;94891.00;;;;7401051;19;20129;-78
2022/04/28 06:21:19;;;;;;;9.93;8.53;;;;;11.50;94895.00;;;;7394853;19;20151;-78
2022/04/28 06:23:48;;;;;;;10.07;8.02;;;;;11.50;94900.00;;;;7398300;19;20153;-77
2022/04/28 06:26:37;;;;;;;8.35;7.47;;;;;11.40;94898.00;;;;7398768;19;20148;-78
2022/04/28 06:29:08;;;;;;;9.85;8.18;;;;;11.50;94897.00;;;;7393659;19;20637;-77
2022/04/28 06:31:53;;;;;;;8.40;7.30;;;;;11.20;94900.00;;;;7396811;19;20153;-76
2022/04/28 06:34:24;;;;;;;7.78;6.97;;;;;11.40;94898.00;;;;7398167;19;20524;-76
2022/04/28 06:37:01;;;;;;;9.40;6.97;;;;;11.40;94904.00;;;;7397795;19;20148;-76
2022/04/28 06:39:40;;;;;;;8.18;6.85;;;;;11.90;94895.00;;;;7398207;19;20672;-76
2022/04/28 06:42:21;;;;;;;7.38;6.38;;;;;12.00;94899.00;;;;7397243;19;20169;-77
2022/04/28 06:45:14;;;;;;;7.68;6.38;;;;;12.10;94905.00;;;;7395333;19;20152;-77
2022/04/28 06:47:52;;;;;;;7.00;6.18;;;;;12.70;94909.00;;;;7395555;19;20539;-77
2022/04/28 06:50:20;;;;;;;6.65;5.95;;;;;13.00;94906.00;;;;7397099;19;20152;-78
2022/04/28 06:52:53;;;;;;;7.10;5.75;;;;;13.00;94900.00;;;;7390593;19;20160;-78
2022/04/28 06:55:44;;;;;;;6.10;5.50;;;;;13.60;94918.00;;;;7397011;19;20153;-80
2022/04/28 06:58:19;;;;;;;6.07;5.13;;;;;13.60;94906.00;;;;7396479;19;20270;-77
2022/04/28 07:01:29;;;;;;;10.50;7.43;;;;;13.50;94916.00;;;;7394937;19;20153;-78
2022/04/28 07:04:08;;;;;;;6.15;4.93;;;;;13.60;94913.00;;;;7396322;19;20135;-76
2022/04/28 07:06:46;;;;;;;5.95;4.88;;;;;14.10;94904.00;;;;7399561;19;20152;-77
2022/04/28 07:09:19;;;;;;;6.18;5.07;;;;;14.20;94919.00;;;;7398029;19;20219;-77
2022/04/28 07:12:17;;;;;;;6.70;4.93;;;;;14.00;94916.00;;;;7398336;19;20159;-76
2022/04/28 07:14:46;;;;;;;8.80;5.20;;;;;14.30;94921.00;;;;7399257;19;20177;-77
2022/04/28 07:17:21;;;;;;;5.97;4.75;;;;;14.60;94920.00;;;;7399807;19;20473;-79
2022/04/28 07:19:55;;;;;;;4.85;4.35;;;;;14.40;94927.00;;;;7398630;19;20512;-76
2022/04/28 07:22:30;;;;;;;6.82;4.90;;;;;14.10;94928.00;;;;7397332;19;20169;-77
2022/04/28 07:24:59;;;;;;;6.45;4.53;;;;;14.30;94937.00;;;;7397117;19;20162;-78
2022/04/28 07:27:30;;;;;;;5.25;4.65;;;;;14.30;94930.00;;;;7397392;19;20513;-78
2022/04/28 07:30:06;;;;;;;7.45;4.47;;;;;14.60;94937.00;;;;7394859;19;20596;-78
2022/04/28 07:32:34;;;;;;;5.70;4.72;;;;;14.70;94936.00;;;;7394825;19;20172;-77
2022/04/28 07:35:04;;;;;;;5.38;4.35;;;;;14.80;94938.00;;;;7398883;19;20188;-77
2022/04/28 07:37:39;;;;;;;4.90;4.50;;;;;14.30;94947.00;;;;7398824;19;21222;-77
2022/04/28 07:40:08;;;;;;;4.95;4.45;;;;;13.90;94940.00;;;;7402150;19;20144;-77
2022/04/28 07:42:38;;;;;;;5.18;4.70;;;;;14.50;94955.00;;;;7397495;19;20156;-77
2022/04/28 07:45:13;;;;;;;5.03;4.53;;;;;14.90;94954.00;;;;7398138;19;20148;-78
2022/04/28 07:47:43;;;;;;;5.03;4.47;;;;;15.20;94946.00;;;;7399240;19;20212;-77
2022/04/28 07:50:12;;;;;;;5.07;4.25;;;;;15.70;94954.00;;;;7398694;19;20145;-77
2022/04/28 07:52:46;;;;;;;6.03;4.68;;;;;15.60;94956.00;;;;7399699;19;20133;-75
2022/04/28 07:55:14;;;;;;;4.43;4.03;;;;;15.80;94962.00;;;;7396507;19;20140;-77
2022/04/28 07:57:43;;;;;;;4.40;3.90;;;;;16.00;94965.00;;;;7398840;19;20148;-77
2022/04/28 08:00:24;;;;;;;4.95;4.35;;;;;16.30;94960.00;;;;7394124;19;20196;-79
2022/04/28 08:02:52;;;;;;;4.45;3.95;;;;;16.70;94958.00;;;;7399106;19;20525;-77
2022/04/28 08:05:26;;;;;;;6.40;4.65;;;;;16.60;94966.00;;;;7388521;19;20132;-76
2022/04/28 08:07:55;;;;;;;8.13;4.85;;;;;16.60;94973.00;;;;7394177;19;20160;-79
2022/04/28 08:10:23;;;;;;;6.00;4.43;;;;;17.30;94975.00;;;;7393457;19;20197;-78
2022/04/28 08:12:57;;;;;;;6.15;4.60;;;;;17.10;94976.00;;;;7397872;19;20154;-78
2022/04/28 08:15:28;;;;;;;5.50;4.15;;;;;17.10;94969.00;;;;7395691;19;20156;-77
2022/04/28 08:17:57;;;;;;;5.32;4.82;;;;;17.20;94977.00;;;;7395773;19;20177;-75
2022/04/28 08:20:34;;;;;;;4.55;3.92;;;;;17.60;94973.00;;;;7399293;19;20152;-75
2022/04/28 08:23:07;;;;;;;5.30;4.20;;;;;17.80;94978.00;;;;7396810;19;20148;-78
2022/04/28 08:25:42;;;;;;;4.55;4.07;;;;;17.60;94975.00;;;;7395378;19;20161;-78
2022/04/28 08:28:10;;;;;;;5.03;3.90;;;;;17.90;94973.00;;;;7393732;19;20184;-77
2022/04/28 08:30:38;;;;;;;4.40;4.00;;;;;17.60;94977.00;;;;7396840;19;20166;-78
2022/04/28 08:33:13;;;;;;;5.18;4.32;;;;;17.60;94982.00;;;;7398026;19;20163;-78
2022/04/28 08:35:41;;;;;;;5.32;4.30;;;;;18.00;94974.00;;;;7398471;19;20141;-77
2022/04/28 08:38:09;;;;;;;5.30;4.10;;;;;18.00;94980.00;;;;7398225;19;20141;-77
2022/04/28 08:40:48;;;;;;;7.53;4.65;;;;;18.20;94975.00;;;;7393921;19;20208;-77
2022/04/28 08:43:17;;;;;;;4.82;4.07;;;;;18.80;94983.00;;;;7399361;19;20153;-77
2022/04/28 08:48:53;;;;;;;4.85;4.15;;;;;18.60;94984.00;;;;7395331;19;20141;-76
2022/04/28 08:51:29;;;;;;;5.22;4.07;;;;;19.40;94990.00;;;;7391834;19;20584;-76
2022/04/28 08:53:57;;;;;;;4.20;3.72;;;;;19.40;94976.00;;;;7392693;19;20220;-75
2022/04/28 08:56:26;;;;;;;4.15;3.60;;;;;20.00;94984.00;;;;7392279;19;20521;-76
2022/04/28 08:59:22;;;;;;;6.55;3.60;;;;;19.70;94980.00;;;;7390904;19;20152;-75
2022/04/28 09:01:57;;;;;;;6.20;3.90;;;;;19.20;94982.00;;;;7393814;19;20647;-77
2022/04/28 09:04:32;;;;;;;5.20;3.65;;;;;19.40;94988.00;;;;7389894;19;20145;-77
2022/04/28 09:07:01;;;;;;;4.75;3.20;;;;;19.00;94983.00;;;;7391663;19;20484;-77
2022/04/28 09:09:29;;;;;;;4.75;3.60;;;;;19.40;94996.00;;;;7389831;19;20615;-77
2022/04/28 09:12:06;;;;;;;4.20;3.17;;;;;19.10;94992.00;;;;7393375;19;20460;-76
2022/04/28 09:14:40;;;;;;;5.72;3.78;;;;;19.20;94994.00;;;;7393738;19;20145;-76
2022/04/28 09:17:15;;;;;;;6.05;3.25;;;;;19.20;94997.00;;;;7398890;19;20158;-78
2022/04/28 09:19:45;;;;;;;5.25;3.22;;;;;19.70;94992.00;;;;7403064;19;20717;-77
2022/04/28 09:22:22;;;;;;;3.58;3.28;;;;;20.60;94991.00;;;;7403805;19;20133;-79
2022/04/28 09:24:59;;;;;;;4.00;2.67;;;;;20.60;94990.00;;;;7400723;19;20151;-78
2022/04/28 09:27:32;;;;;;;5.00;3.58;;;;;20.30;94994.00;;;;7399584;19;20145;-75
2022/04/28 09:30:07;;;;;;;3.25;2.95;;;;;20.60;94997.00;;;;7399953;19;20160;-77
2022/04/28 09:32:39;;;;;;;4.50;3.10;;;;;20.60;94983.00;;;;7400052;19;20179;-77
2022/04/28 09:35:28;;;;;;;3.80;3.13;;;;;20.90;94985.00;;;;7403497;19;20152;-76
2022/04/28 09:38:01;;;;;;;3.10;2.80;;;;;20.80;94982.00;;;;7398768;19;20615;-77
2022/04/28 09:43:45;;;;;;;7.40;3.13;;;;;21.00;94984.00;;;;7402275;19;20498;-77
2022/04/28 09:46:23;;;;;;;2.90;2.55;;;;;20.50;94989.00;;;;7403335;19;20527;-77
2022/04/28 09:48:53;;;;;;;3.53;3.22;;;;;20.80;94992.00;;;;7404541;19;20683;-76
2022/04/28 09:51:29;;;;;;;3.67;3.08;;;;;21.10;94995.00;;;;7406855;19;20192;-76
2022/04/28 09:54:02;;;;;;;6.72;2.70;;;;;21.30;94991.00;;;;7405486;19;20633;-76
2022/04/28 09:56:39;;;;;;;3.92;3.42;;;;;20.80;94993.00;;;;7395289;19;20153;-76
2022/04/28 09:59:21;;;;;;;3.65;3.35;;;;;20.20;94994.00;;;;7401225;19;20156;-75
2022/04/28 10:01:59;;;;;;;5.35;3.30;;;;;20.00;94985.00;;;;7404162;19;20651;-76
2022/04/28 10:04:29;;;;;;;4.25;3.22;;;;;20.80;94990.00;;;;7402254;19;20181;-76
2022/04/28 10:07:06;;;;;;;3.28;3.08;;;;;20.50;94995.00;;;;7402410;19;20607;-75
2022/04/28 10:09:39;;;;;;;5.50;3.28;;;;;20.50;94989.00;;;;7402723;19;20180;-74
2022/04/28 10:12:15;;;;;;;3.90;3.50;;;;;20.50;94999.00;;;;7403803;19;20160;-76
2022/04/28 10:14:43;;;;;;;5.72;3.55;;;;;20.60;94992.00;;;;7401558;19;20168;-75
2022/04/28 10:17:22;;;;;;;3.83;3.28;;;;;20.10;94990.00;;;;7402140;19;20129;-75
2022/04/28 10:20:10;;;;;;;4.55;3.65;;;;;20.40;94995.00;;;;7403221;19;20256;-76
2022/04/28 10:23:05;;;;;;;5.43;3.42;;;;;21.20;94988.00;;;;7396193;19;20512;-77
2022/04/28 10:34:54;;;;;;;5.72;3.58;;;;;20.90;94990.00;;;;7402971;19;20125;-76
2022/04/28 10:37:33;;;;;;;4.38;3.22;;;;;20.90;94997.00;;;;7400749;19;20224;-79
2022/04/28 10:40:03;;;;;;;3.80;3.17;;;;;21.10;95004.00;;;;7402811;19;20165;-78
2022/04/28 10:42:38;;;;;;;4.40;3.97;;;;;21.30;94995.00;;;;7401552;19;20633;-78
2022/04/28 10:45:19;;;;;;;5.38;3.50;;;;;21.10;94983.00;;;;7400498;19;20480;-76
2022/04/28 10:48:28;;;;;;;4.10;3.60;;;;;22.00;94991.00;;;;7402996;19;20144;-78
2022/04/28 10:51:11;;;;;;;5.47;3.28;;;;;22.00;94995.00;;;;7398818;19;20554;-77
2022/04/28 10:54:07;;;;;;;4.38;3.65;;;;;22.50;94992.00;;;;7401188;19;20184;-75
2022/04/28 10:56:52;;;;;;;4.78;3.53;;;;;21.10;94997.00;;;;7401713;19;20144;-78
2022/04/28 10:59:42;;;;;;;7.35;4.10;;;;;20.70;95001.00;;;;7398868;19;20612;-75
2022/04/28 11:02:17;;;;;;;6.35;3.75;;;;;20.80;95006.00;;;;7399815;19;20584;-76
2022/04/28 11:05:23;;;;;;;5.00;4.10;;;;;21.00;94998.00;;;;7400595;19;20529;-77
2022/04/28 11:07:53;;;;;;;7.38;4.00;;;;;21.20;95001.00;;;;7400826;19;20589;-77
2022/04/28 11:10:28;;;;;;;5.95;4.20;;;;;21.60;95002.00;;;;7397220;19;20544;-76
2022/04/28 11:13:07;;;;;;;4.70;3.67;;;;;21.90;95003.00;;;;7401159;19;20163;-78
2022/04/28 11:15:41;;;;;;;5.20;3.90;;;;;22.10;95005.00;;;;7401893;19;20216;-78
2022/04/28 11:18:09;;;;;;;5.40;4.07;;;;;22.40;94998.00;;;;7400351;19;20155;-77
2022/04/28 11:20:38;;;;;;;4.05;3.75;;;;;22.60;95005.00;;;;7397862;19;20212;-77
2022/04/28 11:23:17;;;;;;;6.15;3.70;;;;;22.80;94999.00;;;;7397038;19;20180;-78
2022/04/28 11:25:45;;;;;;;6.40;3.90;;;;;23.00;94999.00;;;;7400004;19;20149;-78
2022/04/28 11:28:22;;;;;;;5.10;3.58;;;;;23.50;95008.00;;;;7396137;19;20133;-77
2022/04/28 11:30:50;;;;;;;4.05;3.75;;;;;23.50;95004.00;;;;7397023;19;20169;-77
2022/04/28 11:33:21;;;;;;;5.25;4.10;;;;;23.40;94998.00;;;;7399530;19;20193;-78
2022/04/28 11:35:56;;;;;;;4.90;3.78;;;;;23.10;95001.00;;;;7397400;19;20156;-79
2022/04/28 11:38:26;;;;;;;4.80;3.50;;;;;22.50;94998.00;;;;7397310;19;20157;-79
2022/04/28 11:40:59;;;;;;;4.20;3.80;;;;;22.90;94997.00;;;;7392355;19;20160;-78
2022/04/28 11:43:36;;;;;;;3.50;3.20;;;;;23.10;95007.00;;;;7388829;19;20156;-78
2022/04/28 11:46:04;;;;;;;3.42;3.13;;;;;23.50;95001.00;;;;7397901;19;20170;-76
2022/04/28 11:48:32;;;;;;;4.50;3.80;;;;;23.80;94993.00;;;;7399227;19;20142;-76
2022/04/28 11:51:10;;;;;;;4.60;3.85;;;;;21.70;95010.00;;;;7394305;19;20155;-78
2022/04/28 11:53:44;;;;;;;5.13;3.92;;;;;22.00;95003.00;;;;7398314;19;20128;-75
2022/04/28 11:56:29;;;;;;;4.22;3.28;;;;;22.30;95004.00;;;;7398158;19;20250;-76
2022/04/28 11:59:00;;;;;;;4.70;3.65;;;;;23.00;94990.00;;;;7397582;19;20145;-75
2022/04/28 12:01:44;;;;;;;4.18;3.50;;;;;23.20;94995.00;;;;7394389;19;20176;-76
2022/04/28 12:04:16;;;;;;;4.60;3.67;;;;;23.00;95002.00;;;;7398880;19;20152;-76
2022/04/28 12:06:54;;;;;;;3.80;3.50;;;;;22.80;95003.00;;;;7395255;19;20149;-75
2022/04/28 12:15:13;;;;;;;7.13;3.80;;;;;22.70;95011.00;;;;7398694;19;20609;-78
2022/04/28 12:21:02;;;;;;;8.02;3.58;;;;;23.00;94998.00;;;;7399322;19;20137;-76
2022/04/28 12:23:41;;;;;;;4.25;3.17;;;;;23.40;94992.00;;;;7400281;19;20144;-77
2022/04/28 12:26:10;;;;;;;4.00;3.35;;;;;23.30;94988.00;;;;7394265;19;20128;-76
2022/04/28 12:28:46;;;;;;;5.13;4.10;;;;;22.40;94991.00;;;;7395882;19;20165;-75
2022/04/28 12:31:34;;;;;;;4.47;3.78;;;;;21.90;95004.00;;;;7396786;19;20160;-76
2022/04/28 12:34:22;;;;;;;4.55;3.67;;;;;22.90;95000.00;;;;7395158;19;20516;-77
2022/04/28 12:36:57;;;;;;;4.35;3.50;;;;;22.90;94993.00;;;;7399363;19;20159;-77
2022/04/28 12:39:32;;;;;;;3.35;3.13;;;;;22.20;95003.00;;;;7400741;19;20200;-77
2022/04/28 12:42:10;;;;;;;3.80;3.50;;;;;22.10;94996.00;;;;7390625;19;20148;-76
2022/04/28 12:44:46;;;;;;;4.10;3.53;;;;;23.00;94986.00;;;;7397150;19;20187;-76
2022/04/28 12:47:14;;;;;;;7.55;3.70;;;;;23.50;94998.00;;;;7397632;19;20212;-76
2022/04/28 12:49:48;;;;;;;3.95;3.58;;;;;24.30;94993.00;;;;7398403;19;20141;-77
2022/04/28 12:52:31;;;;;;;6.57;3.10;;;;;23.90;94993.00;;;;7404724;19;20125;-79
2022/04/28 12:55:04;;;;;;;4.95;3.25;;;;;24.20;94995.00;;;;7404847;19;20172;-75
2022/04/28 12:57:40;;;;;;;5.00;2.90;;;;;24.50;94989.00;;;;7398126;19;20564;-77
2022/04/28 13:00:18;;;;;;;3.30;3.08;;;;;24.30;94985.00;;;;7399374;19;20155;-78
2022/04/28 13:03:00;;;;;;;3.88;3.10;;;;;24.40;94979.00;;;;7396499;19;20176;-77
2022/04/28 13:05:28;;;;;;;3.60;3.30;;;;;24.20;94982.00;;;;7395463;19;20614;-75
2022/04/28 13:08:06;;;;;;;6.65;3.38;;;;;23.30;94984.00;;;;7395502;19;20606;-77
2022/04/28 13:10:43;;;;;;;8.48;3.50;;;;;23.70;94989.00;;;;7397935;19;20659;-78
2022/04/28 13:13:18;;;;;;;3.92;3.60;;;;;22.90;94976.00;;;;7399999;19;20468;-76
2022/04/28 13:15:46;;;;;;;4.43;3.53;;;;;23.10;94979.00;;;;7400592;19;20147;-77
2022/04/28 13:18:14;;;;;;;3.60;3.30;;;;;23.80;94973.00;;;;7401226;19;20176;-77
2022/04/28 13:20:48;;;;;;;3.63;3.30;;;;;23.90;94969.00;;;;7400508;19;20176;-77
2022/04/28 13:23:16;;;;;;;3.72;2.92;;;;;24.00;94966.00;;;;7403727;19;20582;-77
2022/04/28 13:25:44;;;;;;;6.57;3.10;;;;;23.80;94973.00;;;;7402644;19;20862;-75